sensor_id;sensor_type;location;lat;lon;timestamp;temperature;humidity
10245;DHT22;5167;52.164;10.530;2022-07-31T00:00:17;21.90;23.80
10245;DHT22;5167;52.164;10.530;2022-07-31T00:02:43;21.90;23.90
10245;DHT22;5167;52.164;10.530;2022-07-31T00:05:09;21.90;23.80
10245;DHT22;5167;52.164;10.530;2022-07-31T00:07:34;21.80;24.40
10245;DHT22;5167;52.164;10.530;2022-07-31T00:10:00;21.70;24.60
10245;DHT22;5167;52.164;10.530;2022-07-31T00:12:25;21.70;24.90
10245;DHT22;5167;52.164;10.530;2022-07-31T00:14:51;21.70;24.80
10245;DHT22;5167;52.164;10.530;2022-07-31T00:17:16;21.70;25.80
10245;DHT22;5167;52.164;10.530;2022-07-31T00:19:42;21.70;25.00
10245;DHT22;5167;52.164;10.530;2022-07-31T00:22:07;21.70;24.70
10245;DHT22;5167;52.164;10.530;2022-07-31T00:24:33;21.60;24.50
10245;DHT22;5167;52.164;10.530;2022-07-31T00:26:59;21.50;25.30
10245;DHT22;5167;52.164;10.530;2022-07-31T00:29:24;21.50;25.00
10245;DHT22;5167;52.164;10.530;2022-07-31T00:31:50;21.50;26.50
10245;DHT22;5167;52.164;10.530;2022-07-31T00:34:16;21.40;26.40
10245;DHT22;5167;52.164;10.530;2022-07-31T00:36:41;21.40;26.60
10245;DHT22;5167;52.164;10.530;2022-07-31T00:39:07;21.40;26.50
10245;DHT22;5167;52.164;10.530;2022-07-31T00:41:39;21.30;27.10
10245;DHT22;5167;52.164;10.530;2022-07-31T00:44:05;21.30;27.80
10245;DHT22;5167;52.164;10.530;2022-07-31T00:46:31;21.20;27.80
10245;DHT22;5167;52.164;10.530;2022-07-31T00:48:56;21.20;28.00
10245;DHT22;5167;52.164;10.530;2022-07-31T00:51:21;21.20;28.30
10245;DHT22;5167;52.164;10.530;2022-07-31T00:53:47;21.20;28.40
10245;DHT22;5167;52.164;10.530;2022-07-31T00:56:12;21.20;28.10
10245;DHT22;5167;52.164;10.530;2022-07-31T00:58:38;21.10;28.70
10245;DHT22;5167;52.164;10.530;2022-07-31T01:01:03;21.10;30.00
10245;DHT22;5167;52.164;10.530;2022-07-31T01:03:30;21.00;28.70
10245;DHT22;5167;52.164;10.530;2022-07-31T01:05:55;21.10;28.20
10245;DHT22;5167;52.164;10.530;2022-07-31T01:08:21;21.10;27.50
10245;DHT22;5167;52.164;10.530;2022-07-31T01:10:58;21.00;28.10
10245;DHT22;5167;52.164;10.530;2022-07-31T01:13:34;21.00;28.50
10245;DHT22;5167;52.164;10.530;2022-07-31T01:16:02;21.00;29.10
10245;DHT22;5167;52.164;10.530;2022-07-31T01:18:32;21.00;29.30
10245;DHT22;5167;52.164;10.530;2022-07-31T01:21:02;20.90;29.20
10245;DHT22;5167;52.164;10.530;2022-07-31T01:23:46;20.90;29.80
10245;DHT22;5167;52.164;10.530;2022-07-31T01:26:42;20.90;29.30
10245;DHT22;5167;52.164;10.530;2022-07-31T01:29:31;20.90;30.60
10245;DHT22;5167;52.164;10.530;2022-07-31T01:32:08;20.90;30.10
10245;DHT22;5167;52.164;10.530;2022-07-31T01:34:54;20.90;30.40
10245;DHT22;5167;52.164;10.530;2022-07-31T01:37:29;20.80;31.60
10245;DHT22;5167;52.164;10.530;2022-07-31T01:40:02;20.90;31.60
10245;DHT22;5167;52.164;10.530;2022-07-31T01:42:29;20.90;31.90
10245;DHT22;5167;52.164;10.530;2022-07-31T01:44:59;20.90;32.40
10245;DHT22;5167;52.164;10.530;2022-07-31T01:47:26;20.80;32.80
10245;DHT22;5167;52.164;10.530;2022-07-31T01:49:53;20.90;31.60
10245;DHT22;5167;52.164;10.530;2022-07-31T01:52:19;20.90;32.80
10245;DHT22;5167;52.164;10.530;2022-07-31T01:54:46;20.90;33.30
10245;DHT22;5167;52.164;10.530;2022-07-31T01:57:12;20.80;33.50
10245;DHT22;5167;52.164;10.530;2022-07-31T01:59:40;20.80;33.90
10245;DHT22;5167;52.164;10.530;2022-07-31T02:02:06;20.90;33.80
10245;DHT22;5167;52.164;10.530;2022-07-31T02:04:33;20.90;34.10
10245;DHT22;5167;52.164;10.530;2022-07-31T02:07:00;20.80;34.20
10245;DHT22;5167;52.164;10.530;2022-07-31T02:09:29;20.90;35.00
10245;DHT22;5167;52.164;10.530;2022-07-31T02:11:56;20.90;35.20
10245;DHT22;5167;52.164;10.530;2022-07-31T02:14:23;20.90;33.90
10245;DHT22;5167;52.164;10.530;2022-07-31T02:16:49;20.90;34.80
10245;DHT22;5167;52.164;10.530;2022-07-31T02:19:15;20.80;34.30
10245;DHT22;5167;52.164;10.530;2022-07-31T02:21:41;20.90;33.80
10245;DHT22;5167;52.164;10.530;2022-07-31T02:24:07;20.80;35.00
10245;DHT22;5167;52.164;10.530;2022-07-31T02:26:34;20.80;35.80
10245;DHT22;5167;52.164;10.530;2022-07-31T02:29:01;20.80;35.60
10245;DHT22;5167;52.164;10.530;2022-07-31T02:31:29;20.80;35.30
10245;DHT22;5167;52.164;10.530;2022-07-31T02:33:55;20.80;35.20
10245;DHT22;5167;52.164;10.530;2022-07-31T02:36:22;20.70;35.80
10245;DHT22;5167;52.164;10.530;2022-07-31T02:38:49;20.70;36.00
10245;DHT22;5167;52.164;10.530;2022-07-31T02:41:16;20.70;36.30
10245;DHT22;5167;52.164;10.530;2022-07-31T02:43:43;20.70;36.80
10245;DHT22;5167;52.164;10.530;2022-07-31T02:46:11;20.70;36.10
10245;DHT22;5167;52.164;10.530;2022-07-31T02:48:37;20.70;36.10
10245;DHT22;5167;52.164;10.530;2022-07-31T02:51:03;20.70;36.60
10245;DHT22;5167;52.164;10.530;2022-07-31T02:53:29;20.60;36.10
10245;DHT22;5167;52.164;10.530;2022-07-31T02:55:55;20.60;36.60
10245;DHT22;5167;52.164;10.530;2022-07-31T02:58:21;20.60;36.60
10245;DHT22;5167;52.164;10.530;2022-07-31T03:00:47;20.50;36.90
10245;DHT22;5167;52.164;10.530;2022-07-31T03:03:12;20.50;37.40
10245;DHT22;5167;52.164;10.530;2022-07-31T03:05:38;20.50;37.70
10245;DHT22;5167;52.164;10.530;2022-07-31T03:08:04;20.50;38.00
10245;DHT22;5167;52.164;10.530;2022-07-31T03:10:29;20.60;37.50
10245;DHT22;5167;52.164;10.530;2022-07-31T03:12:55;20.50;36.40
10245;DHT22;5167;52.164;10.530;2022-07-31T03:15:24;20.50;38.30
10245;DHT22;5167;52.164;10.530;2022-07-31T03:17:50;20.50;38.20
10245;DHT22;5167;52.164;10.530;2022-07-31T03:20:17;20.40;37.20
10245;DHT22;5167;52.164;10.530;2022-07-31T03:22:43;20.40;38.30
10245;DHT22;5167;52.164;10.530;2022-07-31T03:25:09;20.40;37.50
10245;DHT22;5167;52.164;10.530;2022-07-31T03:27:36;20.40;38.60
10245;DHT22;5167;52.164;10.530;2022-07-31T03:30:03;20.40;38.90
10245;DHT22;5167;52.164;10.530;2022-07-31T03:32:29;20.30;39.30
10245;DHT22;5167;52.164;10.530;2022-07-31T03:34:54;20.30;39.10
10245;DHT22;5167;52.164;10.530;2022-07-31T03:37:20;20.30;39.40
10245;DHT22;5167;52.164;10.530;2022-07-31T03:39:45;20.30;39.70
10245;DHT22;5167;52.164;10.530;2022-07-31T03:42:12;20.30;40.00
10245;DHT22;5167;52.164;10.530;2022-07-31T03:44:38;20.30;39.80
10245;DHT22;5167;52.164;10.530;2022-07-31T03:47:05;20.20;39.90
10245;DHT22;5167;52.164;10.530;2022-07-31T03:49:31;20.20;40.00
10245;DHT22;5167;52.164;10.530;2022-07-31T03:51:57;20.10;40.00
10245;DHT22;5167;52.164;10.530;2022-07-31T03:54:22;20.20;40.90
10245;DHT22;5167;52.164;10.530;2022-07-31T03:56:49;20.20;39.90
10245;DHT22;5167;52.164;10.530;2022-07-31T03:59:16;20.20;40.00
10245;DHT22;5167;52.164;10.530;2022-07-31T04:01:42;20.20;40.00
10245;DHT22;5167;52.164;10.530;2022-07-31T04:04:08;20.10;40.40
10245;DHT22;5167;52.164;10.530;2022-07-31T04:06:34;20.10;40.60
10245;DHT22;5167;52.164;10.530;2022-07-31T04:09:00;20.00;40.20
10245;DHT22;5167;52.164;10.530;2022-07-31T04:11:26;20.10;40.30
10245;DHT22;5167;52.164;10.530;2022-07-31T04:13:52;20.00;40.40
10245;DHT22;5167;52.164;10.530;2022-07-31T04:16:17;20.00;41.20
10245;DHT22;5167;52.164;10.530;2022-07-31T04:18:43;19.90;41.80
10245;DHT22;5167;52.164;10.530;2022-07-31T04:21:08;20.00;42.20
10245;DHT22;5167;52.164;10.530;2022-07-31T04:23:34;20.00;42.60
10245;DHT22;5167;52.164;10.530;2022-07-31T04:25:59;20.00;41.30
10245;DHT22;5167;52.164;10.530;2022-07-31T04:28:25;20.00;42.00
10245;DHT22;5167;52.164;10.530;2022-07-31T04:30:50;20.00;42.50
10245;DHT22;5167;52.164;10.530;2022-07-31T04:33:16;20.00;42.30
10245;DHT22;5167;52.164;10.530;2022-07-31T04:35:42;20.00;42.50
10245;DHT22;5167;52.164;10.530;2022-07-31T04:38:07;20.00;42.90
10245;DHT22;5167;52.164;10.530;2022-07-31T04:40:33;20.00;43.30
10245;DHT22;5167;52.164;10.530;2022-07-31T04:42:58;20.00;43.30
10245;DHT22;5167;52.164;10.530;2022-07-31T04:45:24;20.00;43.20
10245;DHT22;5167;52.164;10.530;2022-07-31T04:47:49;20.10;43.80
10245;DHT22;5167;52.164;10.530;2022-07-31T04:50:15;20.10;43.80
10245;DHT22;5167;52.164;10.530;2022-07-31T04:52:40;20.20;43.00
10245;DHT22;5167;52.164;10.530;2022-07-31T04:55:06;20.10;43.20
10245;DHT22;5167;52.164;10.530;2022-07-31T04:57:32;20.30;43.60
10245;DHT22;5167;52.164;10.530;2022-07-31T04:59:57;20.30;42.80
10245;DHT22;5167;52.164;10.530;2022-07-31T05:02:23;20.40;43.80
10245;DHT22;5167;52.164;10.530;2022-07-31T05:04:48;20.50;43.10
10245;DHT22;5167;52.164;10.530;2022-07-31T05:07:14;20.50;43.20
10245;DHT22;5167;52.164;10.530;2022-07-31T05:09:39;20.50;42.50
10245;DHT22;5167;52.164;10.530;2022-07-31T05:12:04;20.60;42.60
10245;DHT22;5167;52.164;10.530;2022-07-31T05:14:30;20.70;42.20
10245;DHT22;5167;52.164;10.530;2022-07-31T05:16:56;20.70;40.30
10245;DHT22;5167;52.164;10.530;2022-07-31T05:19:21;20.80;41.10
10245;DHT22;5167;52.164;10.530;2022-07-31T05:21:47;20.80;40.60
10245;DHT22;5167;52.164;10.530;2022-07-31T05:24:13;20.80;40.50
10245;DHT22;5167;52.164;10.530;2022-07-31T05:26:38;20.90;40.20
10245;DHT22;5167;52.164;10.530;2022-07-31T05:29:04;21.00;39.70
10245;DHT22;5167;52.164;10.530;2022-07-31T05:31:30;21.00;40.10
10245;DHT22;5167;52.164;10.530;2022-07-31T05:33:55;21.10;39.70
10245;DHT22;5167;52.164;10.530;2022-07-31T05:36:24;21.10;39.30
10245;DHT22;5167;52.164;10.530;2022-07-31T05:38:49;21.20;39.20
10245;DHT22;5167;52.164;10.530;2022-07-31T05:41:15;21.30;38.60
10245;DHT22;5167;52.164;10.530;2022-07-31T05:43:41;21.30;36.80
10245;DHT22;5167;52.164;10.530;2022-07-31T05:46:06;21.30;35.20
10245;DHT22;5167;52.164;10.530;2022-07-31T05:48:32;21.40;35.80
10245;DHT22;5167;52.164;10.530;2022-07-31T05:50:58;21.40;35.50
10245;DHT22;5167;52.164;10.530;2022-07-31T05:53:23;21.40;34.70
10245;DHT22;5167;52.164;10.530;2022-07-31T05:55:49;21.50;33.80
10245;DHT22;5167;52.164;10.530;2022-07-31T05:58:16;21.50;33.60
10245;DHT22;5167;52.164;10.530;2022-07-31T06:00:43;21.50;33.30
10245;DHT22;5167;52.164;10.530;2022-07-31T06:03:10;21.60;32.30
10245;DHT22;5167;52.164;10.530;2022-07-31T06:05:37;21.50;32.90
10245;DHT22;5167;52.164;10.530;2022-07-31T06:08:03;21.60;33.10
10245;DHT22;5167;52.164;10.530;2022-07-31T06:10:29;21.70;31.90
10245;DHT22;5167;52.164;10.530;2022-07-31T06:12:54;21.70;31.50
10245;DHT22;5167;52.164;10.530;2022-07-31T06:15:20;21.80;30.70
10245;DHT22;5167;52.164;10.530;2022-07-31T06:17:46;21.70;30.90
10245;DHT22;5167;52.164;10.530;2022-07-31T06:20:12;21.70;30.80
10245;DHT22;5167;52.164;10.530;2022-07-31T06:22:38;21.70;30.60
10245;DHT22;5167;52.164;10.530;2022-07-31T06:25:06;21.70;30.60
10245;DHT22;5167;52.164;10.530;2022-07-31T06:27:33;21.80;31.00
10245;DHT22;5167;52.164;10.530;2022-07-31T06:29:59;21.80;30.50
10245;DHT22;5167;52.164;10.530;2022-07-31T06:32:24;21.80;31.20
10245;DHT22;5167;52.164;10.530;2022-07-31T06:34:50;21.80;30.60
10245;DHT22;5167;52.164;10.530;2022-07-31T06:37:15;21.80;29.40
10245;DHT22;5167;52.164;10.530;2022-07-31T06:39:41;21.80;29.60
10245;DHT22;5167;52.164;10.530;2022-07-31T06:42:06;21.80;28.80
10245;DHT22;5167;52.164;10.530;2022-07-31T06:44:32;21.90;29.30
10245;DHT22;5167;52.164;10.530;2022-07-31T06:46:58;21.90;29.10
10245;DHT22;5167;52.164;10.530;2022-07-31T06:49:24;21.80;29.30
10245;DHT22;5167;52.164;10.530;2022-07-31T06:51:50;21.90;29.50
10245;DHT22;5167;52.164;10.530;2022-07-31T06:54:16;21.90;28.50
10245;DHT22;5167;52.164;10.530;2022-07-31T06:56:41;21.90;28.70
10245;DHT22;5167;52.164;10.530;2022-07-31T06:59:07;21.90;28.70
10245;DHT22;5167;52.164;10.530;2022-07-31T07:01:33;22.00;29.00
10245;DHT22;5167;52.164;10.530;2022-07-31T07:03:58;22.10;30.30
10245;DHT22;5167;52.164;10.530;2022-07-31T07:06:24;22.20;28.90
10245;DHT22;5167;52.164;10.530;2022-07-31T07:08:50;22.20;26.80
10245;DHT22;5167;52.164;10.530;2022-07-31T07:11:16;22.30;25.60
10245;DHT22;5167;52.164;10.530;2022-07-31T07:13:42;22.40;24.30
10245;DHT22;5167;52.164;10.530;2022-07-31T07:16:07;22.40;24.80
10245;DHT22;5167;52.164;10.530;2022-07-31T07:18:33;22.50;24.10
10245;DHT22;5167;52.164;10.530;2022-07-31T07:20:58;22.70;23.00
10245;DHT22;5167;52.164;10.530;2022-07-31T07:23:24;22.70;21.80
10245;DHT22;5167;52.164;10.530;2022-07-31T07:25:50;22.80;20.20
10245;DHT22;5167;52.164;10.530;2022-07-31T07:28:16;22.90;19.70
10245;DHT22;5167;52.164;10.530;2022-07-31T07:30:42;22.90;19.40
10245;DHT22;5167;52.164;10.530;2022-07-31T07:33:07;22.90;19.20
10245;DHT22;5167;52.164;10.530;2022-07-31T07:35:33;23.00;18.90
10245;DHT22;5167;52.164;10.530;2022-07-31T07:37:59;23.10;18.20
10245;DHT22;5167;52.164;10.530;2022-07-31T07:40:25;23.10;17.80
10245;DHT22;5167;52.164;10.530;2022-07-31T07:42:50;23.10;17.10
10245;DHT22;5167;52.164;10.530;2022-07-31T07:45:16;23.20;16.30
10245;DHT22;5167;52.164;10.530;2022-07-31T07:47:42;23.20;16.70
10245;DHT22;5167;52.164;10.530;2022-07-31T07:50:09;23.20;17.30
10245;DHT22;5167;52.164;10.530;2022-07-31T07:52:35;23.30;16.10
10245;DHT22;5167;52.164;10.530;2022-07-31T07:55:01;23.30;15.30
10245;DHT22;5167;52.164;10.530;2022-07-31T07:57:27;23.40;14.70
10245;DHT22;5167;52.164;10.530;2022-07-31T07:59:52;23.40;14.30
10245;DHT22;5167;52.164;10.530;2022-07-31T08:02:18;23.60;15.00
10245;DHT22;5167;52.164;10.530;2022-07-31T08:04:44;23.60;14.40
10245;DHT22;5167;52.164;10.530;2022-07-31T08:07:09;23.60;14.90
10245;DHT22;5167;52.164;10.530;2022-07-31T08:09:36;23.50;14.90
10245;DHT22;5167;52.164;10.530;2022-07-31T08:12:02;23.70;13.20
10245;DHT22;5167;52.164;10.530;2022-07-31T08:14:28;23.80;12.90
10245;DHT22;5167;52.164;10.530;2022-07-31T08:16:54;23.80;12.20
10245;DHT22;5167;52.164;10.530;2022-07-31T08:19:20;23.80;11.20
10245;DHT22;5167;52.164;10.530;2022-07-31T08:21:46;23.90;9.80
10245;DHT22;5167;52.164;10.530;2022-07-31T08:24:11;24.00;10.20
10245;DHT22;5167;52.164;10.530;2022-07-31T08:26:38;24.10;9.40
10245;DHT22;5167;52.164;10.530;2022-07-31T08:29:23;24.10;9.60
10245;DHT22;5167;52.164;10.530;2022-07-31T08:31:49;24.10;10.20
10245;DHT22;5167;52.164;10.530;2022-07-31T08:34:16;24.20;10.60
10245;DHT22;5167;52.164;10.530;2022-07-31T08:36:41;24.40;8.10
10245;DHT22;5167;52.164;10.530;2022-07-31T08:39:07;24.50;6.80
10245;DHT22;5167;52.164;10.530;2022-07-31T08:41:32;24.60;6.40
10245;DHT22;5167;52.164;10.530;2022-07-31T08:43:58;24.70;5.70
10245;DHT22;5167;52.164;10.530;2022-07-31T08:46:25;24.90;5.00
10245;DHT22;5167;52.164;10.530;2022-07-31T08:48:54;25.00;5.00
10245;DHT22;5167;52.164;10.530;2022-07-31T08:51:22;25.10;5.00
10245;DHT22;5167;52.164;10.530;2022-07-31T08:53:49;25.30;5.00
10245;DHT22;5167;52.164;10.530;2022-07-31T08:56:16;25.40;5.00
10245;DHT22;5167;52.164;10.530;2022-07-31T08:58:43;25.50;5.00
10245;DHT22;5167;52.164;10.530;2022-07-31T09:01:11;25.60;5.00
10245;DHT22;5167;52.164;10.530;2022-07-31T09:03:36;25.60;5.00
10245;DHT22;5167;52.164;10.530;2022-07-31T09:06:03;25.70;5.00
10245;DHT22;5167;52.164;10.530;2022-07-31T09:08:33;25.80;5.00
10245;DHT22;5167;52.164;10.530;2022-07-31T09:11:03;25.90;5.00
10245;DHT22;5167;52.164;10.530;2022-07-31T09:13:28;26.00;5.00
10245;DHT22;5167;52.164;10.530;2022-07-31T09:15:58;26.10;5.00
10245;DHT22;5167;52.164;10.530;2022-07-31T09:18:23;26.40;5.00
10245;DHT22;5167;52.164;10.530;2022-07-31T09:21:00;26.60;5.00
10245;DHT22;5167;52.164;10.530;2022-07-31T09:23:27;26.70;5.00
10245;DHT22;5167;52.164;10.530;2022-07-31T09:25:58;26.90;5.00
10245;DHT22;5167;52.164;10.530;2022-07-31T09:28:38;27.10;5.00
10245;DHT22;5167;52.164;10.530;2022-07-31T09:31:05;27.40;5.00
10245;DHT22;5167;52.164;10.530;2022-07-31T09:33:31;27.50;5.00
10245;DHT22;5167;52.164;10.530;2022-07-31T09:35:58;27.90;5.00
10245;DHT22;5167;52.164;10.530;2022-07-31T09:38:32;27.90;5.00
10245;DHT22;5167;52.164;10.530;2022-07-31T09:41:27;28.00;5.00
10245;DHT22;5167;52.164;10.530;2022-07-31T09:43:53;28.10;5.00
10245;DHT22;5167;52.164;10.530;2022-07-31T09:46:20;28.20;5.00
10245;DHT22;5167;52.164;10.530;2022-07-31T09:48:52;28.20;5.00
10245;DHT22;5167;52.164;10.530;2022-07-31T09:51:18;28.30;5.00
10245;DHT22;5167;52.164;10.530;2022-07-31T09:53:46;28.30;5.00
10245;DHT22;5167;52.164;10.530;2022-07-31T09:56:14;28.30;5.00
10245;DHT22;5167;52.164;10.530;2022-07-31T09:58:40;28.30;5.00
10245;DHT22;5167;52.164;10.530;2022-07-31T10:01:11;28.40;5.00
10245;DHT22;5167;52.164;10.530;2022-07-31T10:03:37;28.50;5.00
10245;DHT22;5167;52.164;10.530;2022-07-31T10:06:05;28.40;5.00
10245;DHT22;5167;52.164;10.530;2022-07-31T10:08:34;28.40;5.00
10245;DHT22;5167;52.164;10.530;2022-07-31T10:11:02;28.40;5.00
10245;DHT22;5167;52.164;10.530;2022-07-31T10:13:28;28.30;5.00
10245;DHT22;5167;52.164;10.530;2022-07-31T10:15:56;28.30;5.00
10245;DHT22;5167;52.164;10.530;2022-07-31T10:18:24;28.20;5.00
10245;DHT22;5167;52.164;10.530;2022-07-31T10:20:54;28.20;5.00
10245;DHT22;5167;52.164;10.530;2022-07-31T10:23:21;28.10;5.00
10245;DHT22;5167;52.164;10.530;2022-07-31T10:25:56;28.20;5.00
10245;DHT22;5167;52.164;10.530;2022-07-31T10:28:23;28.30;5.00
10245;DHT22;5167;52.164;10.530;2022-07-31T10:30:49;28.30;5.00
10245;DHT22;5167;52.164;10.530;2022-07-31T10:33:15;28.30;5.00
10245;DHT22;5167;52.164;10.530;2022-07-31T10:36:05;28.40;5.00
10245;DHT22;5167;52.164;10.530;2022-07-31T10:38:44;28.40;5.00
10245;DHT22;5167;52.164;10.530;2022-07-31T10:44:35;28.70;5.00
10245;DHT22;5167;52.164;10.530;2022-07-31T10:47:17;28.80;5.00
10245;DHT22;5167;52.164;10.530;2022-07-31T10:49:44;28.90;5.00
10245;DHT22;5167;52.164;10.530;2022-07-31T10:52:10;29.00;5.00
10245;DHT22;5167;52.164;10.530;2022-07-31T10:54:41;29.10;5.00
10245;DHT22;5167;52.164;10.530;2022-07-31T10:57:06;29.10;5.00
10245;DHT22;5167;52.164;10.530;2022-07-31T10:59:32;29.10;5.00
10245;DHT22;5167;52.164;10.530;2022-07-31T11:01:58;29.10;5.00
10245;DHT22;5167;52.164;10.530;2022-07-31T11:04:30;29.00;5.00
10245;DHT22;5167;52.164;10.530;2022-07-31T11:06:57;28.90;5.00
10245;DHT22;5167;52.164;10.530;2022-07-31T11:09:24;28.90;5.00
10245;DHT22;5167;52.164;10.530;2022-07-31T11:11:51;28.80;5.00
10245;DHT22;5167;52.164;10.530;2022-07-31T11:14:16;28.90;5.00
10245;DHT22;5167;52.164;10.530;2022-07-31T11:16:49;28.80;5.00
10245;DHT22;5167;52.164;10.530;2022-07-31T11:19:15;28.80;5.00
10245;DHT22;5167;52.164;10.530;2022-07-31T11:21:40;28.80;5.00
10245;DHT22;5167;52.164;10.530;2022-07-31T11:24:17;28.80;5.00
10245;DHT22;5167;52.164;10.530;2022-07-31T11:26:56;28.90;5.00
10245;DHT22;5167;52.164;10.530;2022-07-31T11:29:30;28.90;5.00
10245;DHT22;5167;52.164;10.530;2022-07-31T11:32:15;29.00;5.00
10245;DHT22;5167;52.164;10.530;2022-07-31T11:34:49;29.10;5.00
10245;DHT22;5167;52.164;10.530;2022-07-31T11:37:16;29.10;5.00
10245;DHT22;5167;52.164;10.530;2022-07-31T11:39:43;29.10;5.00
10245;DHT22;5167;52.164;10.530;2022-07-31T11:42:08;29.10;5.00
10245;DHT22;5167;52.164;10.530;2022-07-31T11:44:34;29.10;5.00
10245;DHT22;5167;52.164;10.530;2022-07-31T11:47:00;29.10;5.00
10245;DHT22;5167;52.164;10.530;2022-07-31T11:49:25;29.10;5.00
10245;DHT22;5167;52.164;10.530;2022-07-31T11:51:59;29.10;5.00
10245;DHT22;5167;52.164;10.530;2022-07-31T11:54:25;29.10;5.00
10245;DHT22;5167;52.164;10.530;2022-07-31T11:56:52;29.00;5.00
10245;DHT22;5167;52.164;10.530;2022-07-31T11:59:37;28.90;5.00
10245;DHT22;5167;52.164;10.530;2022-07-31T12:02:08;28.90;5.00
10245;DHT22;5167;52.164;10.530;2022-07-31T12:04:34;28.90;5.00
10245;DHT22;5167;52.164;10.530;2022-07-31T12:07:01;28.80;5.00
10245;DHT22;5167;52.164;10.530;2022-07-31T12:09:28;28.80;5.00
10245;DHT22;5167;52.164;10.530;2022-07-31T12:11:54;28.80;5.00
10245;DHT22;5167;52.164;10.530;2022-07-31T12:16:55;28.90;5.00
10245;DHT22;5167;52.164;10.530;2022-07-31T12:19:25;28.90;5.00
10245;DHT22;5167;52.164;10.530;2022-07-31T12:21:51;29.00;5.00
10245;DHT22;5167;52.164;10.530;2022-07-31T12:24:16;29.20;5.00
10245;DHT22;5167;52.164;10.530;2022-07-31T12:26:47;29.20;5.00
10245;DHT22;5167;52.164;10.530;2022-07-31T12:29:13;29.30;5.00
10245;DHT22;5167;52.164;10.530;2022-07-31T12:31:50;29.40;5.00
10245;DHT22;5167;52.164;10.530;2022-07-31T12:34:29;29.40;5.00
10245;DHT22;5167;52.164;10.530;2022-07-31T12:37:09;29.40;5.00
10245;DHT22;5167;52.164;10.530;2022-07-31T12:39:37;29.50;5.00
10245;DHT22;5167;52.164;10.530;2022-07-31T12:42:03;29.50;5.00
10245;DHT22;5167;52.164;10.530;2022-07-31T12:44:29;29.50;5.00
10245;DHT22;5167;52.164;10.530;2022-07-31T12:46:54;29.50;5.00
10245;DHT22;5167;52.164;10.530;2022-07-31T12:49:20;29.50;5.00
10245;DHT22;5167;52.164;10.530;2022-07-31T12:51:45;29.60;5.00
10245;DHT22;5167;52.164;10.530;2022-07-31T12:54:11;29.50;5.00
10245;DHT22;5167;52.164;10.530;2022-07-31T12:56:38;29.50;5.00
10245;DHT22;5167;52.164;10.530;2022-07-31T12:59:04;29.60;5.00
10245;DHT22;5167;52.164;10.530;2022-07-31T13:01:31;29.50;5.00
10245;DHT22;5167;52.164;10.530;2022-07-31T13:03:57;29.70;5.00
10245;DHT22;5167;52.164;10.530;2022-07-31T13:06:25;29.60;5.00
10245;DHT22;5167;52.164;10.530;2022-07-31T13:08:51;29.60;5.00
10245;DHT22;5167;52.164;10.530;2022-07-31T13:11:16;29.70;5.00
10245;DHT22;5167;52.164;10.530;2022-07-31T13:13:42;29.60;5.00
10245;DHT22;5167;52.164;10.530;2022-07-31T13:16:07;29.70;5.00
10245;DHT22;5167;52.164;10.530;2022-07-31T13:18:33;29.60;5.00
10245;DHT22;5167;52.164;10.530;2022-07-31T13:21:00;29.60;5.00
10245;DHT22;5167;52.164;10.530;2022-07-31T13:23:26;29.70;5.00
10245;DHT22;5167;52.164;10.530;2022-07-31T13:25:51;29.70;5.00
10245;DHT22;5167;52.164;10.530;2022-07-31T13:28:17;29.70;5.00
10245;DHT22;5167;52.164;10.530;2022-07-31T13:30:42;29.70;5.00
10245;DHT22;5167;52.164;10.530;2022-07-31T13:33:08;29.70;5.00
10245;DHT22;5167;52.164;10.530;2022-07-31T13:35:33;29.80;5.00
10245;DHT22;5167;52.164;10.530;2022-07-31T13:37:59;29.80;5.00
10245;DHT22;5167;52.164;10.530;2022-07-31T13:40:25;29.80;5.00
10245;DHT22;5167;52.164;10.530;2022-07-31T13:43:09;29.90;5.00
10245;DHT22;5167;52.164;10.530;2022-07-31T13:45:35;29.90;5.00
10245;DHT22;5167;52.164;10.530;2022-07-31T13:48:01;29.90;5.00
10245;DHT22;5167;52.164;10.530;2022-07-31T13:50:27;29.90;5.00
10245;DHT22;5167;52.164;10.530;2022-07-31T13:52:52;29.90;5.00
10245;DHT22;5167;52.164;10.530;2022-07-31T13:55:18;29.80;5.00
10245;DHT22;5167;52.164;10.530;2022-07-31T13:57:43;29.80;5.00
10245;DHT22;5167;52.164;10.530;2022-07-31T14:00:09;29.80;5.00
10245;DHT22;5167;52.164;10.530;2022-07-31T14:02:35;29.70;5.00
10245;DHT22;5167;52.164;10.530;2022-07-31T14:05:00;29.70;5.00
10245;DHT22;5167;52.164;10.530;2022-07-31T14:07:26;29.80;5.00
10245;DHT22;5167;52.164;10.530;2022-07-31T14:09:52;29.70;5.00
10245;DHT22;5167;52.164;10.530;2022-07-31T14:12:17;29.70;5.00
10245;DHT22;5167;52.164;10.530;2022-07-31T14:14:43;29.70;5.00
10245;DHT22;5167;52.164;10.530;2022-07-31T14:17:08;29.70;5.00
10245;DHT22;5167;52.164;10.530;2022-07-31T14:19:34;29.60;5.00
10245;DHT22;5167;52.164;10.530;2022-07-31T14:21:59;29.70;5.00
10245;DHT22;5167;52.164;10.530;2022-07-31T14:24:25;29.60;5.00
10245;DHT22;5167;52.164;10.530;2022-07-31T14:26:50;29.60;5.00
10245;DHT22;5167;52.164;10.530;2022-07-31T14:29:16;29.60;5.00
10245;DHT22;5167;52.164;10.530;2022-07-31T14:31:41;29.60;5.00
10245;DHT22;5167;52.164;10.530;2022-07-31T14:34:07;29.60;5.00
10245;DHT22;5167;52.164;10.530;2022-07-31T14:36:32;29.50;5.00
10245;DHT22;5167;52.164;10.530;2022-07-31T14:38:58;29.50;5.00
10245;DHT22;5167;52.164;10.530;2022-07-31T14:41:23;29.50;5.00
10245;DHT22;5167;52.164;10.530;2022-07-31T14:43:49;29.40;5.00
10245;DHT22;5167;52.164;10.530;2022-07-31T14:46:14;29.40;5.00
10245;DHT22;5167;52.164;10.530;2022-07-31T14:48:40;29.50;5.00
10245;DHT22;5167;52.164;10.530;2022-07-31T14:51:05;29.50;5.00
10245;DHT22;5167;52.164;10.530;2022-07-31T14:53:31;29.30;5.00
10245;DHT22;5167;52.164;10.530;2022-07-31T14:55:56;29.40;5.00
10245;DHT22;5167;52.164;10.530;2022-07-31T14:58:22;29.40;5.00
10245;DHT22;5167;52.164;10.530;2022-07-31T15:00:47;29.40;5.00
10245;DHT22;5167;52.164;10.530;2022-07-31T15:03:13;29.30;5.00
10245;DHT22;5167;52.164;10.530;2022-07-31T15:05:39;29.30;5.00
10245;DHT22;5167;52.164;10.530;2022-07-31T15:08:05;29.20;5.00
10245;DHT22;5167;52.164;10.530;2022-07-31T15:10:31;29.20;5.00
10245;DHT22;5167;52.164;10.530;2022-07-31T15:12:56;29.20;5.00
10245;DHT22;5167;52.164;10.530;2022-07-31T15:15:21;29.10;5.00
10245;DHT22;5167;52.164;10.530;2022-07-31T15:17:47;29.20;5.00
10245;DHT22;5167;52.164;10.530;2022-07-31T15:20:12;29.10;5.00
10245;DHT22;5167;52.164;10.530;2022-07-31T15:22:38;29.10;5.00
10245;DHT22;5167;52.164;10.530;2022-07-31T15:25:04;29.10;5.00
10245;DHT22;5167;52.164;10.530;2022-07-31T15:27:29;29.10;5.00
10245;DHT22;5167;52.164;10.530;2022-07-31T15:29:55;29.10;5.00
10245;DHT22;5167;52.164;10.530;2022-07-31T15:32:21;29.00;5.00
10245;DHT22;5167;52.164;10.530;2022-07-31T15:34:46;29.00;5.00
10245;DHT22;5167;52.164;10.530;2022-07-31T15:37:12;29.00;5.00
10245;DHT22;5167;52.164;10.530;2022-07-31T15:39:37;29.00;5.00
10245;DHT22;5167;52.164;10.530;2022-07-31T15:42:03;29.10;5.00